Bookmark and Share
Track history (hours):
 

Cinque Terre

Last reported at 2013-May-27 10:06 UTC. Time now 2014-Apr-20 03:16 UTC.
Position N 40°33' E 014°14'.
Warning: this ship's position is months out of date.

Type: Passenger vessel. MMSI: 247208400.

NotesDate/timePositionNaut miles runAvg speedWind from/ knotsBaromVisibWave heightAir tempDewpointWater temp
2013-May-27 10:06N 40°33' E 014°14'0 0.0
2013-May-27 09:32N 40°33' E 014°14'2 1.7
2013-May-27 08:27N 40°33' E 014°12'  
2013-May-21 15:26N 40°37' E 014°20'6 0.8
2013-May-21 08:23N 40°33' E 014°14'2 1.9
2013-May-21 07:33N 40°34' E 014°13'8 7.5
2013-May-21 06:33N 40°38' E 014°21'2 0.1
2013-May-20 15:32N 40°37' E 014°20'4 3.7
2013-May-20 14:32N 40°34' E 014°16'0 0.5
2013-May-20 13:33N 40°34' E 014°17'3 0.8
2013-May-20 09:09N 40°37' E 014°20'6 8.5
2013-May-20 08:30N 40°33' E 014°15'2 1.8
2013-May-20 07:33N 40°34' E 014°15'6 6.1
2013-May-20 06:32N 40°38' E 014°21'2 0.1
2013-May-19 16:32N 40°37' E 014°20'2 1.8
2013-May-19 15:33N 40°38' E 014°21'9 8.8
2013-May-19 14:33N 40°32' E 014°13'3 2.7
2013-May-19 13:28N 40°33' E 014°16'4 4.8
2013-May-19 12:33N 40°37' E 014°20'0 0.0
2013-May-19 11:33N 40°37' E 014°20'8 7.7
2013-May-19 10:33N 40°44' E 014°21'2 1.9
2013-May-19 09:33N 40°46' E 014°22'1413.3
2013-May-19 08:28N 40°33' E 014°15'1 1.6
2013-May-19 07:33N 40°34' E 014°16'9 9.1
2013-May-19 06:33N 40°40' E 014°25'5 0.3
2013-May-18 16:16N 40°37' E 014°20'0 0.0
2013-May-18 15:33N 40°37' E 014°20'4 4.4
2013-May-18 14:33N 40°34' E 014°16'1 0.7
2013-May-18 12:25N 40°33' E 014°14'0 0.0
2013-May-18 10:19N 40°33' E 014°14'2 0.7
2013-May-18 07:33N 40°34' E 014°12'8 8.0
2013-May-18 06:33N 40°38' E 014°21'  

Dump ship's entire track history

sailing weather and tide predictions

Cinque Terre — IUTV — position and weather